createdAt,value
2022-11-07T00:00:07.516Z,101341.00
2022-11-07T00:00:22.570Z,101339.19
2022-11-07T00:00:49.886Z,101341.94
2022-11-07T00:01:09.474Z,101335.91
2022-11-07T00:01:23.954Z,101343.84
2022-11-07T00:01:36.612Z,101336.91
2022-11-07T00:01:49.975Z,101345.72
2022-11-07T00:02:03.719Z,101335.28
2022-11-07T00:02:16.551Z,101339.63
2022-11-07T00:02:29.266Z,101334.34
2022-11-07T00:02:42.382Z,101337.03
2022-11-07T00:02:55.736Z,101330.88
2022-11-07T00:03:09.363Z,101342.28
2022-11-07T00:03:22.002Z,101333.41
2022-11-07T00:03:34.577Z,101336.13
2022-11-07T00:03:47.141Z,101332.63
2022-11-07T00:04:00.018Z,101332.63
2022-11-07T00:04:12.592Z,101337.94
2022-11-07T00:04:27.764Z,101329.09
2022-11-07T00:04:41.659Z,101345.78
2022-11-07T00:04:54.409Z,101330.09
2022-11-07T00:05:07.909Z,101331.84
2022-11-07T00:05:20.485Z,101335.34
2022-11-07T00:05:33.064Z,101335.41
2022-11-07T00:05:45.636Z,101332.75
2022-11-07T00:05:58.167Z,101337.13
2022-11-07T00:06:10.980Z,101330.09
2022-11-07T00:06:24.029Z,101325.75
2022-11-07T00:06:38.537Z,101332.69
2022-11-07T00:06:52.464Z,101337.13
2022-11-07T00:07:05.764Z,101336.13
2022-11-07T00:07:18.373Z,101332.63
2022-11-07T00:07:31.151Z,101334.50
2022-11-07T00:07:44.708Z,101333.53
2022-11-07T00:07:57.259Z,101330.78
2022-11-07T00:08:09.834Z,101332.47
2022-11-07T00:08:32.666Z,101331.69
2022-11-07T00:08:45.722Z,101331.63
2022-11-07T00:08:58.773Z,101328.13
2022-11-07T00:09:12.344Z,101331.63
2022-11-07T00:09:25.140Z,101332.47
2022-11-07T00:09:37.988Z,101330.59
2022-11-07T00:09:50.554Z,101321.88
2022-11-07T00:10:03.767Z,101329.75
2022-11-07T00:10:16.631Z,101326.25
2022-11-07T00:10:30.203Z,101327.00
2022-11-07T00:10:42.784Z,101328.81
2022-11-07T00:10:55.406Z,101327.91
2022-11-07T00:11:08.552Z,101332.31
2022-11-07T00:11:21.215Z,101323.50
2022-11-07T00:11:34.239Z,101327.91
2022-11-07T00:11:46.828Z,101324.47
2022-11-07T00:11:59.765Z,101325.31
2022-11-07T00:12:13.385Z,101313.00
2022-11-07T00:12:26.073Z,101321.88
2022-11-07T00:12:38.706Z,101321.88
2022-11-07T00:12:51.268Z,101309.56
2022-11-07T00:13:03.852Z,101327.16
2022-11-07T00:13:16.640Z,101321.00
2022-11-07T00:13:29.826Z,101318.44
2022-11-07T00:13:43.714Z,101325.47
2022-11-07T00:13:56.274Z,101320.28
2022-11-07T00:14:08.936Z,101315.00
2022-11-07T00:14:21.518Z,101321.13
2022-11-07T00:14:34.194Z,101317.63
2022-11-07T00:14:46.789Z,101314.19
2022-11-07T00:15:00.336Z,101313.28
2022-11-07T00:15:12.972Z,101311.56
2022-11-07T00:15:25.556Z,101312.50
2022-11-07T00:15:38.149Z,101315.00
2022-11-07T00:15:50.742Z,101304.53
2022-11-07T00:16:06.121Z,101309.69
2022-11-07T00:16:18.682Z,101320.28
2022-11-07T00:16:32.328Z,101314.13
2022-11-07T00:16:46.642Z,101315.06
2022-11-07T00:16:59.246Z,101312.28
2022-11-07T00:17:11.814Z,101314.06
2022-11-07T00:17:24.374Z,101311.25
2022-11-07T00:17:37.015Z,101313.06
2022-11-07T00:17:49.597Z,101310.41
2022-11-07T00:18:03.152Z,101314.72
2022-11-07T00:18:15.772Z,101311.25
2022-11-07T00:18:28.860Z,101311.19
2022-11-07T00:18:41.462Z,101310.34
2022-11-07T00:18:54.094Z,101311.25
2022-11-07T00:19:06.827Z,101304.25
2022-11-07T00:19:21.391Z,101313.00
2022-11-07T00:19:34.978Z,101312.06
2022-11-07T00:19:49.301Z,101313.00
2022-11-07T00:20:01.871Z,101311.19
2022-11-07T00:20:14.606Z,101307.69
2022-11-07T00:20:27.183Z,101309.41
2022-11-07T00:20:39.762Z,101311.03
2022-11-07T00:20:53.423Z,101308.47
2022-11-07T00:21:07.735Z,101306.69
2022-11-07T00:21:20.388Z,101309.34
2022-11-07T00:21:33.007Z,101309.25
2022-11-07T00:21:45.737Z,101316.28
2022-11-07T00:21:59.700Z,101311.84
2022-11-07T00:22:13.274Z,101303.03
2022-11-07T00:22:26.102Z,101306.53
2022-11-07T00:22:38.680Z,101310.97
2022-11-07T00:22:51.324Z,101313.63
2022-11-07T00:23:03.873Z,101303.94
2022-11-07T00:23:16.862Z,101310.97
2022-11-07T00:23:29.750Z,101303.03
2022-11-07T00:23:44.469Z,101304.91
2022-11-07T00:23:57.082Z,101309.25
2022-11-07T00:24:10.302Z,101304.91
2022-11-07T00:24:22.893Z,101302.25
2022-11-07T00:24:35.470Z,101303.94
2022-11-07T00:24:48.061Z,101302.97
2022-11-07T00:25:01.625Z,101300.38
2022-11-07T00:25:14.390Z,101302.09
2022-11-07T00:25:27.066Z,101294.13
2022-11-07T00:25:39.642Z,101301.16
2022-11-07T00:25:52.202Z,101297.72
2022-11-07T00:26:06.986Z,101300.31
2022-11-07T00:26:19.720Z,101296.78
2022-11-07T00:26:33.323Z,101302.09
2022-11-07T00:26:46.824Z,101298.59
2022-11-07T00:26:59.610Z,101299.59
2022-11-07T00:27:12.343Z,101305.69
2022-11-07T00:27:25.085Z,101295.94
2022-11-07T00:27:37.758Z,101301.28
2022-11-07T00:27:50.348Z,101301.38
2022-11-07T00:28:04.063Z,101296.94
2022-11-07T00:28:16.922Z,101300.50
2022-11-07T00:28:29.537Z,101302.25
2022-11-07T00:28:43.842Z,101295.22
2022-11-07T00:28:56.502Z,101288.19
2022-11-07T00:29:13.352Z,101292.56
2022-11-07T00:29:26.899Z,101296.09
2022-11-07T00:29:39.526Z,101296.09
2022-11-07T00:29:52.122Z,101296.00
2022-11-07T00:30:05.739Z,101302.25
2022-11-07T00:30:18.777Z,101298.75
2022-11-07T00:30:31.383Z,101302.25
2022-11-07T00:30:44.107Z,101292.56
2022-11-07T00:30:59.500Z,101289.91
2022-11-07T00:31:14.465Z,101293.50
2022-11-07T00:31:27.085Z,101287.19
2022-11-07T00:31:39.697Z,101290.84
2022-11-07T00:31:52.284Z,101289.78
2022-11-07T00:32:05.392Z,101288.03
2022-11-07T00:32:18.985Z,101288.94
2022-11-07T00:32:31.548Z,101284.47
2022-11-07T00:32:44.202Z,101292.38
2022-11-07T00:33:00.133Z,101288.84
2022-11-07T00:33:13.293Z,101294.06
2022-11-07T00:33:26.070Z,101293.22
2022-11-07T00:33:39.071Z,101296.66
2022-11-07T00:33:52.915Z,101291.34
2022-11-07T00:34:05.522Z,101288.75
2022-11-07T00:34:18.441Z,101289.56
2022-11-07T00:34:35.202Z,101287.75
2022-11-07T00:34:47.814Z,101286.06
2022-11-07T00:35:01.834Z,101286.91
2022-11-07T00:35:14.658Z,101286.91
2022-11-07T00:35:27.268Z,101289.50
2022-11-07T00:35:41.947Z,101287.75
2022-11-07T00:35:54.582Z,101279.81
2022-11-07T00:36:08.317Z,101286.84
2022-11-07T00:36:23.916Z,101288.53
2022-11-07T00:36:36.535Z,101291.97
2022-11-07T00:36:49.148Z,101291.06
2022-11-07T00:37:03.181Z,101284.97
2022-11-07T00:37:15.858Z,101284.97
2022-11-07T00:37:28.474Z,101292.75
2022-11-07T00:37:41.063Z,101287.47
2022-11-07T00:37:55.696Z,101292.75
2022-11-07T00:38:08.327Z,101290.06
2022-11-07T00:38:21.318Z,101291.75
2022-11-07T00:38:34.001Z,101289.19
2022-11-07T00:38:46.869Z,101283.00
2022-11-07T00:39:00.829Z,101287.41
2022-11-07T00:39:13.902Z,101287.31
2022-11-07T00:39:26.509Z,101295.19
2022-11-07T00:39:39.096Z,101287.31
2022-11-07T00:39:51.688Z,101288.09
2022-11-07T00:40:05.325Z,101292.47
2022-11-07T00:40:19.171Z,101291.63
2022-11-07T00:40:31.754Z,101290.75
2022-11-07T00:40:53.422Z,101291.63
2022-11-07T00:41:06.698Z,101295.13
2022-11-07T00:41:19.954Z,101291.47
2022-11-07T00:41:32.744Z,101288.88
2022-11-07T00:41:48.632Z,101292.31
2022-11-07T00:42:01.188Z,101297.63
2022-11-07T00:42:13.807Z,101292.31
2022-11-07T00:42:26.394Z,101287.09
2022-11-07T00:42:39.242Z,101291.47
2022-11-07T00:42:51.864Z,101298.56
2022-11-07T00:43:04.434Z,101288.97
2022-11-07T00:43:18.018Z,101291.53
2022-11-07T00:43:30.979Z,101294.19
2022-11-07T00:43:44.012Z,101295.13
2022-11-07T00:43:57.021Z,101289.81
2022-11-07T00:44:09.590Z,101294.19
2022-11-07T00:44:22.832Z,101289.75
2022-11-07T00:44:36.430Z,101297.63
2022-11-07T00:44:49.043Z,101295.91
2022-11-07T00:45:01.618Z,101292.31
2022-11-07T00:45:14.403Z,101288.88
2022-11-07T00:45:26.958Z,101293.25
2022-11-07T00:45:39.537Z,101297.63
2022-11-07T00:45:52.338Z,101289.81
2022-11-07T00:46:06.950Z,101288.88
2022-11-07T00:46:22.084Z,101285.38
2022-11-07T00:46:34.672Z,101288.88
2022-11-07T00:46:47.238Z,101296.69
2022-11-07T00:46:59.799Z,101287.00
2022-11-07T00:47:12.386Z,101288.88
2022-11-07T00:47:25.234Z,101293.19
2022-11-07T00:47:38.914Z,101290.59
2022-11-07T00:47:52.105Z,101284.34
2022-11-07T00:48:05.222Z,101292.25
2022-11-07T00:48:18.243Z,101286.09
2022-11-07T00:48:31.706Z,101282.59
2022-11-07T00:48:44.310Z,101285.16
2022-11-07T00:48:56.926Z,101284.28
2022-11-07T00:49:10.684Z,101287.78
2022-11-07T00:49:23.273Z,101276.34
2022-11-07T00:49:35.845Z,101279.84
2022-11-07T00:49:48.446Z,101284.22
2022-11-07T00:50:01.018Z,101284.22
2022-11-07T00:50:13.688Z,101280.78
2022-11-07T00:50:27.488Z,101280.84
2022-11-07T00:50:40.638Z,101282.59
2022-11-07T00:50:53.193Z,101275.56
2022-11-07T00:51:07.004Z,101281.72
2022-11-07T00:51:21.976Z,101285.25
2022-11-07T00:51:34.622Z,101276.41
2022-11-07T00:51:48.284Z,101280.84
2022-11-07T00:52:00.871Z,101283.44
2022-11-07T00:52:15.270Z,101280.84
2022-11-07T00:52:27.814Z,101278.13
2022-11-07T00:52:40.708Z,101278.13
2022-11-07T00:52:53.289Z,101279.84
2022-11-07T00:53:05.982Z,101276.41
2022-11-07T00:53:18.582Z,101273.75
2022-11-07T00:53:32.176Z,101280.84
2022-11-07T00:53:45.197Z,101275.56
2022-11-07T00:53:58.007Z,101275.56
2022-11-07T00:54:10.736Z,101276.41
2022-11-07T00:54:23.504Z,101277.28
2022-11-07T00:54:37.092Z,101271.19
2022-11-07T00:54:49.670Z,101281.72
2022-11-07T00:55:02.252Z,101275.50
2022-11-07T00:55:14.882Z,101276.41
2022-11-07T00:55:27.470Z,101275.56
2022-11-07T00:55:40.214Z,101271.09
2022-11-07T00:55:52.772Z,101269.41
2022-11-07T00:56:07.899Z,101264.09
2022-11-07T00:56:23.722Z,101270.25
2022-11-07T00:56:36.606Z,101264.94
2022-11-07T00:56:49.187Z,101273.75
2022-11-07T00:57:02.082Z,101275.50
2022-11-07T00:57:14.658Z,101265.81
2022-11-07T00:57:27.215Z,101268.56
2022-11-07T00:57:40.874Z,101263.25
2022-11-07T00:57:53.452Z,101265.97
2022-11-07T00:58:09.868Z,101264.03
2022-11-07T00:58:26.118Z,101264.03
2022-11-07T00:58:38.957Z,101263.25
2022-11-07T00:58:54.793Z,101264.09
2022-11-07T00:59:07.443Z,101259.72
2022-11-07T00:59:21.031Z,101260.66
2022-11-07T00:59:33.657Z,101264.94
2022-11-07T00:59:46.356Z,101264.09
2022-11-07T00:59:59.010Z,101261.44
2022-11-07T01:00:13.008Z,101261.50
2022-11-07T01:00:26.290Z,101256.28
2022-11-07T01:00:38.874Z,101257.06
2022-11-07T01:00:52.455Z,101260.66
2022-11-07T01:01:09.119Z,101259.81
2022-11-07T01:01:24.296Z,101258.06
2022-11-07T01:01:37.124Z,101265.97
2022-11-07T01:01:50.130Z,101258.94
2022-11-07T01:02:03.909Z,101264.22
2022-11-07T01:02:16.705Z,101254.63
2022-11-07T01:02:29.493Z,101255.50
2022-11-07T01:02:42.285Z,101256.38
2022-11-07T01:03:10.221Z,101256.38
2022-11-07T01:03:41.030Z,101264.22
2022-11-07T01:04:11.755Z,101250.19
2022-11-07T01:04:42.710Z,101253.63
2022-11-07T01:05:10.437Z,101248.31
2022-11-07T01:05:23.014Z,101244.75
2022-11-07T01:05:35.950Z,101246.47
2022-11-07T01:05:56.516Z,101243.03
2022-11-07T01:06:09.574Z,101243.91
2022-11-07T01:06:23.540Z,101243.03
2022-11-07T01:06:38.626Z,101242.03
2022-11-07T01:06:52.365Z,101248.19
2022-11-07T01:07:06.938Z,101243.75
2022-11-07T01:07:20.877Z,101242.81
2022-11-07T01:07:34.838Z,101240.22
2022-11-07T01:07:47.526Z,101238.44
2022-11-07T01:08:00.113Z,101243.81
2022-11-07T01:08:12.707Z,101243.81
2022-11-07T01:08:25.694Z,101241.16
2022-11-07T01:08:38.325Z,101239.44
2022-11-07T01:08:51.816Z,101236.81
2022-11-07T01:09:05.038Z,101235.00
2022-11-07T01:09:21.063Z,101239.38
2022-11-07T01:09:33.668Z,101242.09
2022-11-07T01:09:46.252Z,101241.16
2022-11-07T01:09:58.851Z,101242.03
2022-11-07T01:10:11.437Z,101237.66
2022-11-07T01:10:24.021Z,101237.59
2022-11-07T01:10:41.572Z,101233.97
2022-11-07T01:10:54.818Z,101241.94
2022-11-07T01:11:08.906Z,101246.31
2022-11-07T01:11:21.943Z,101238.44
2022-11-07T01:11:36.428Z,101241.03
2022-11-07T01:11:49.680Z,101234.09
2022-11-07T01:12:02.254Z,101234.88
2022-11-07T01:12:14.838Z,101232.28
2022-11-07T01:12:27.462Z,101231.44
2022-11-07T01:12:41.025Z,101233.06
2022-11-07T01:12:53.680Z,101226.91
2022-11-07T01:13:06.245Z,101224.31
2022-11-07T01:13:18.840Z,101233.91
2022-11-07T01:13:31.734Z,101232.13
2022-11-07T01:13:44.319Z,101228.69
2022-11-07T01:13:57.347Z,101227.75
2022-11-07T01:14:11.567Z,101231.25
2022-11-07T01:14:24.914Z,101227.75
2022-11-07T01:14:37.502Z,101232.97
2022-11-07T01:14:50.083Z,101229.47
2022-11-07T01:15:04.433Z,101224.94
2022-11-07T01:15:17.152Z,101228.53
2022-11-07T01:15:29.738Z,101230.25
2022-11-07T01:15:42.330Z,101225.91
2022-11-07T01:15:54.894Z,101224.16
2022-11-07T01:16:09.191Z,101221.50
2022-11-07T01:16:22.014Z,101226.81
2022-11-07T01:16:35.899Z,101223.25
2022-11-07T01:16:49.078Z,101221.50
2022-11-07T01:17:02.182Z,101220.66
2022-11-07T01:17:14.818Z,101230.25
2022-11-07T01:17:27.409Z,101224.94
2022-11-07T01:17:40.010Z,101229.41
2022-11-07T01:17:52.646Z,101229.34
2022-11-07T01:18:05.390Z,101230.13
2022-11-07T01:18:19.302Z,101224.94
2022-11-07T01:18:31.930Z,101230.13
2022-11-07T01:18:44.507Z,101222.22
2022-11-07T01:18:57.742Z,101225.72
2022-11-07T01:19:10.908Z,101216.94
2022-11-07T01:19:24.459Z,101226.59
2022-11-07T01:19:37.032Z,101222.16
2022-11-07T01:19:49.613Z,101215.91
2022-11-07T01:20:02.207Z,101221.22
2022-11-07T01:20:14.844Z,101214.19
2022-11-07T01:20:27.422Z,101217.72
2022-11-07T01:20:41.168Z,101210.53
2022-11-07T01:20:53.828Z,101217.63
2022-11-07T01:21:13.586Z,101213.19
2022-11-07T01:21:29.034Z,101210.59
2022-11-07T01:21:42.820Z,101218.50
2022-11-07T01:21:55.418Z,101211.38
2022-11-07T01:22:09.007Z,101211.38
2022-11-07T01:22:22.991Z,101211.47
2022-11-07T01:22:35.618Z,101218.25
2022-11-07T01:22:48.183Z,101208.50
2022-11-07T01:23:00.769Z,101206.78
2022-11-07T01:23:13.746Z,101205.00
2022-11-07T01:23:26.677Z,101208.44
2022-11-07T01:23:39.532Z,101210.22
2022-11-07T01:23:53.119Z,101206.69
2022-11-07T01:24:07.625Z,101207.47
2022-11-07T01:24:20.338Z,101210.06
2022-11-07T01:24:33.045Z,101211.88
2022-11-07T01:24:45.618Z,101200.41
2022-11-07T01:24:58.216Z,101199.53
2022-11-07T01:25:11.802Z,101194.94
2022-11-07T01:25:24.502Z,101198.44
2022-11-07T01:25:37.985Z,101200.31
2022-11-07T01:25:50.672Z,101201.09
2022-11-07T01:26:05.480Z,101202.03
2022-11-07T01:26:18.429Z,101203.75
2022-11-07T01:26:32.414Z,101195.84
2022-11-07T01:26:48.065Z,101193.19
2022-11-07T01:27:00.742Z,101189.69
2022-11-07T01:27:13.390Z,101196.63
2022-11-07T01:27:25.962Z,101194.88
2022-11-07T01:27:38.553Z,101188.78
2022-11-07T01:27:52.124Z,101194.88
2022-11-07T01:28:05.014Z,101191.31
2022-11-07T01:28:18.010Z,101183.31
2022-11-07T01:28:30.594Z,101193.91
2022-11-07T01:28:43.422Z,101188.59
2022-11-07T01:28:56.023Z,101188.59
2022-11-07T01:29:10.297Z,101190.41
2022-11-07T01:29:23.024Z,101182.44
2022-11-07T01:29:35.618Z,101183.22
2022-11-07T01:29:48.205Z,101184.09
2022-11-07T01:30:00.803Z,101185.03
2022-11-07T01:30:13.716Z,101187.59
2022-11-07T01:30:26.377Z,101188.47
2022-11-07T01:30:40.222Z,101185.72
2022-11-07T01:30:52.786Z,101182.22
2022-11-07T01:31:09.023Z,101182.13
2022-11-07T01:31:21.999Z,101181.13
2022-11-07T01:31:34.794Z,101176.72
2022-11-07T01:31:48.589Z,101179.38
2022-11-07T01:32:01.152Z,101172.38
2022-11-07T01:32:13.973Z,101175.88
2022-11-07T01:32:26.574Z,101174.09
2022-11-07T01:32:39.156Z,101175.88
2022-11-07T01:32:51.727Z,101170.50
2022-11-07T01:33:04.490Z,101172.31
2022-11-07T01:33:17.252Z,101168.78
2022-11-07T01:33:30.158Z,101161.78
2022-11-07T01:33:44.345Z,101158.16
2022-11-07T01:33:57.116Z,101159.06
2022-11-07T01:34:09.728Z,101159.06
2022-11-07T01:34:22.346Z,101164.41
2022-11-07T01:34:34.942Z,101159.13
2022-11-07T01:34:48.523Z,101156.47
2022-11-07T01:35:01.107Z,101159.19
2022-11-07T01:35:13.768Z,101160.03
2022-11-07T01:35:26.365Z,101154.72
2022-11-07T01:35:38.957Z,101151.34
2022-11-07T01:35:51.577Z,101153.03
2022-11-07T01:36:08.839Z,101150.44
2022-11-07T01:36:21.427Z,101146.03
2022-11-07T01:36:35.396Z,101146.88
2022-11-07T01:36:48.097Z,101152.09
2022-11-07T01:37:00.674Z,101151.22
2022-11-07T01:37:13.291Z,101150.44
2022-11-07T01:37:27.228Z,101144.28
2022-11-07T01:37:39.835Z,101145.25
2022-11-07T01:37:52.472Z,101146.03
2022-11-07T01:38:06.255Z,101143.38
2022-11-07T01:38:18.860Z,101144.28
2022-11-07T01:38:31.901Z,101143.28
2022-11-07T01:38:46.328Z,101136.28
2022-11-07T01:38:59.408Z,101136.34
2022-11-07T01:39:12.071Z,101137.28
2022-11-07T01:39:25.671Z,101135.41
2022-11-07T01:39:38.517Z,101137.19
2022-11-07T01:39:51.070Z,101141.56
2022-11-07T01:40:04.252Z,101137.28
2022-11-07T01:40:16.879Z,101134.53
2022-11-07T01:40:29.907Z,101141.56
2022-11-07T01:40:57.958Z,101135.41
2022-11-07T01:41:22.168Z,101133.50
2022-11-07T01:41:38.062Z,101131.63
2022-11-07T01:41:50.639Z,101131.63
2022-11-07T01:42:04.008Z,101134.22
2022-11-07T01:42:16.606Z,101124.47
2022-11-07T01:42:29.215Z,101130.72
2022-11-07T01:42:41.776Z,101127.13
2022-11-07T01:42:54.710Z,101135.00
2022-11-07T01:43:09.948Z,101128.91
2022-11-07T01:43:22.535Z,101134.94
2022-11-07T01:43:46.360Z,101134.94
2022-11-07T01:44:01.468Z,101129.63
2022-11-07T01:45:00.847Z,101126.03
2022-11-07T01:45:20.280Z,101130.41
2022-11-07T01:45:32.944Z,101124.16
2022-11-07T01:45:45.517Z,101129.44
2022-11-07T01:45:58.102Z,101136.50
2022-11-07T01:46:11.013Z,101131.19
2022-11-07T01:46:27.204Z,101143.50
2022-11-07T01:46:42.816Z,101134.63
2022-11-07T01:47:00.044Z,101131.84
2022-11-07T01:47:12.730Z,101132.81
2022-11-07T01:47:29.146Z,101128.28
2022-11-07T01:47:41.840Z,101137.09
2022-11-07T01:47:58.780Z,101127.44
2022-11-07T01:48:11.377Z,101133.59
2022-11-07T01:48:24.995Z,101135.28
2022-11-07T01:48:38.353Z,101132.72
2022-11-07T01:48:54.503Z,101137.00
2022-11-07T01:49:11.249Z,101128.09
2022-11-07T01:49:28.342Z,101132.38
2022-11-07T01:49:42.614Z,101128.94
2022-11-07T01:49:55.500Z,101132.38
2022-11-07T01:50:09.567Z,101130.69
2022-11-07T01:50:24.807Z,101139.44
2022-11-07T01:50:37.654Z,101128.03
2022-11-07T01:50:50.542Z,101125.38
2022-11-07T01:51:03.359Z,101127.06
2022-11-07T01:51:17.808Z,101122.72
2022-11-07T01:51:33.625Z,101120.91
2022-11-07T01:51:51.600Z,101126.09
2022-11-07T01:52:09.988Z,101126.09
2022-11-07T01:52:25.652Z,101125.13
2022-11-07T01:52:43.236Z,101124.09
2022-11-07T01:52:57.314Z,101120.59
2022-11-07T01:53:10.160Z,101123.25
2022-11-07T01:53:22.818Z,101119.75
2022-11-07T01:53:37.556Z,101119.75
2022-11-07T01:53:51.445Z,101112.56
2022-11-07T01:54:05.385Z,101111.59
2022-11-07T01:54:22.033Z,101118.66
2022-11-07T01:54:39.140Z,101116.78
2022-11-07T01:54:58.016Z,101113.34
2022-11-07T01:55:14.744Z,101110.69
2022-11-07T01:55:30.329Z,101111.59
2022-11-07T01:55:43.246Z,101114.19
2022-11-07T01:55:55.873Z,101114.25
2022-11-07T01:56:12.555Z,101107.16
2022-11-07T01:56:28.906Z,101108.94
2022-11-07T01:56:44.263Z,101108.09
2022-11-07T01:56:59.300Z,101108.09
2022-11-07T01:57:17.004Z,101111.53
2022-11-07T01:57:33.308Z,101109.72
2022-11-07T01:57:50.750Z,101103.66
2022-11-07T01:58:05.818Z,101109.81
2022-11-07T01:58:18.814Z,101109.72
2022-11-07T01:58:31.481Z,101107.94
2022-11-07T01:58:46.162Z,101110.50
2022-11-07T01:58:59.883Z,101108.81
2022-11-07T01:59:17.202Z,101111.47
2022-11-07T01:59:33.024Z,101113.16
2022-11-07T01:59:46.733Z,101115.81
2022-11-07T02:00:01.964Z,101115.81
2022-11-07T02:00:17.076Z,101116.59
2022-11-07T02:00:31.086Z,101113.94
2022-11-07T02:00:43.972Z,101114.78
2022-11-07T02:00:56.638Z,101120.94
2022-11-07T02:01:10.234Z,101116.41
2022-11-07T02:01:23.460Z,101115.50
2022-11-07T02:01:36.458Z,101116.25
2022-11-07T02:01:49.292Z,101120.78
2022-11-07T02:02:02.086Z,101120.78
2022-11-07T02:02:15.407Z,101115.50
2022-11-07T02:02:29.669Z,101120.72
2022-11-07T02:02:44.442Z,101120.78
2022-11-07T02:03:00.946Z,101119.94
2022-11-07T02:03:17.470Z,101122.50
2022-11-07T02:03:30.342Z,101122.50
2022-11-07T02:03:44.470Z,101119.06
2022-11-07T02:03:59.145Z,101119.84
2022-11-07T02:04:12.738Z,101115.31
2022-11-07T02:04:29.574Z,101120.63
2022-11-07T02:04:42.671Z,101120.63
2022-11-07T02:04:57.966Z,101123.19
2022-11-07T02:05:17.510Z,101117.03
2022-11-07T02:05:35.396Z,101113.44
2022-11-07T02:05:53.211Z,101125.78
2022-11-07T02:06:10.811Z,101123.13
2022-11-07T02:06:31.790Z,101117.72
2022-11-07T02:06:48.256Z,101127.47
2022-11-07T02:07:04.658Z,101130.91
2022-11-07T02:07:20.040Z,101127.41
2022-11-07T02:07:33.594Z,101130.06
2022-11-07T02:07:47.938Z,101134.41
2022-11-07T02:08:03.120Z,101126.38
2022-11-07T02:08:17.467Z,101135.19
2022-11-07T02:08:34.075Z,101132.47
2022-11-07T02:08:48.776Z,101130.66
2022-11-07T02:09:01.498Z,101125.41
2022-11-07T02:09:14.993Z,101135.03
2022-11-07T02:09:27.836Z,101133.22
2022-11-07T02:09:41.616Z,101129.72
2022-11-07T02:09:56.042Z,101130.56
2022-11-07T02:10:09.791Z,101135.88
2022-11-07T02:10:23.748Z,101135.88
2022-11-07T02:10:38.386Z,101129.72
2022-11-07T02:10:52.355Z,101133.16
2022-11-07T02:11:06.538Z,101134.00
2022-11-07T02:11:20.716Z,101134.94
2022-11-07T02:11:35.130Z,101133.06
2022-11-07T02:11:47.786Z,101132.28
2022-11-07T02:12:01.296Z,101131.34
2022-11-07T02:12:15.264Z,101134.00
2022-11-07T02:12:28.562Z,101139.25
2022-11-07T02:12:42.474Z,101138.34
2022-11-07T02:12:58.724Z,101136.66
2022-11-07T02:13:18.073Z,101141.78
2022-11-07T02:13:32.398Z,101137.44
2022-11-07T02:13:45.038Z,101133.81
2022-11-07T02:13:57.614Z,101140.09
2022-11-07T02:14:16.001Z,101137.44
2022-11-07T02:14:29.648Z,101140.88
2022-11-07T02:14:42.899Z,101143.59
2022-11-07T02:14:56.431Z,101141.78
2022-11-07T02:15:10.760Z,101145.16
2022-11-07T02:15:23.694Z,101148.72
2022-11-07T02:15:38.274Z,101140.75
2022-11-07T02:15:51.156Z,101139.13
2022-11-07T02:16:05.858Z,101147.03
2022-11-07T02:16:18.446Z,101140.75
2022-11-07T02:16:32.757Z,101143.34
2022-11-07T02:16:46.796Z,101151.31
2022-11-07T02:17:01.776Z,101146.94
2022-11-07T02:17:15.700Z,101139.91
2022-11-07T02:17:29.146Z,101151.31
2022-11-07T02:17:41.788Z,101139.00
2022-11-07T02:17:55.642Z,101153.97
2022-11-07T02:18:08.302Z,101149.59
2022-11-07T02:18:22.780Z,101146.94
2022-11-07T02:18:38.804Z,101143.53
2022-11-07T02:18:51.570Z,101149.59
2022-11-07T02:19:08.684Z,101149.59
2022-11-07T02:19:36.220Z,101148.72
2022-11-07T02:19:50.826Z,101147.88
2022-11-07T02:20:03.747Z,101144.28
2022-11-07T02:20:17.630Z,101149.50
2022-11-07T02:20:30.448Z,101146.06
2022-11-07T02:20:43.796Z,101153.09
2022-11-07T02:21:01.143Z,101152.16
2022-11-07T02:21:30.286Z,101151.31
2022-11-07T02:21:48.767Z,101150.38
2022-11-07T02:22:14.430Z,101148.66
2022-11-07T02:22:36.201Z,101149.59
2022-11-07T02:22:54.107Z,101148.72
2022-11-07T02:23:13.640Z,101145.22
2022-11-07T02:23:33.426Z,101140.69
2022-11-07T02:23:53.543Z,101153.03
2022-11-07T02:24:16.234Z,101150.47
2022-11-07T02:24:31.958Z,101146.00
2022-11-07T02:24:46.131Z,101140.88
2022-11-07T02:25:02.168Z,101146.94
2022-11-07T02:25:16.862Z,101149.59
2022-11-07T02:25:29.851Z,101146.06
2022-11-07T02:25:42.730Z,101147.81
2022-11-07T02:25:55.759Z,101140.88
2022-11-07T02:26:08.442Z,101145.16
2022-11-07T02:26:22.245Z,101138.22
2022-11-07T02:26:37.033Z,101139.00
2022-11-07T02:26:51.358Z,101142.56
2022-11-07T02:27:07.526Z,101138.22
2022-11-07T02:27:23.138Z,101139.13
2022-11-07T02:27:37.492Z,101144.28
2022-11-07T02:27:53.691Z,101148.72
2022-11-07T02:28:09.773Z,101137.19
2022-11-07T02:28:27.031Z,101130.25
2022-11-07T02:28:41.030Z,101130.25
2022-11-07T02:28:56.386Z,101130.13
2022-11-07T02:29:10.738Z,101131.09
2022-11-07T02:29:24.722Z,101135.56
2022-11-07T02:29:39.820Z,101133.69
2022-11-07T02:29:55.966Z,101133.69
2022-11-07T02:30:12.472Z,101129.28
2022-11-07T02:30:27.905Z,101137.09
2022-11-07T02:30:40.536Z,101132.72
2022-11-07T02:30:53.095Z,101136.22
2022-11-07T02:31:06.475Z,101131.03
2022-11-07T02:31:19.051Z,101134.53
2022-11-07T02:31:32.667Z,101146.00
2022-11-07T02:31:45.458Z,101136.34
2022-11-07T02:32:02.483Z,101133.69
2022-11-07T02:32:15.074Z,101139.91
2022-11-07T02:32:27.791Z,101139.25
2022-11-07T02:32:40.630Z,101138.34
2022-11-07T02:32:54.451Z,101141.91
2022-11-07T02:33:17.568Z,101139.31
2022-11-07T02:33:30.167Z,101145.41
2022-11-07T02:33:42.789Z,101142.75
2022-11-07T02:33:55.376Z,101145.47
2022-11-07T02:34:08.942Z,101147.28
2022-11-07T02:34:21.526Z,101144.63
2022-11-07T02:34:34.549Z,101142.91
2022-11-07T02:34:55.941Z,101151.81
2022-11-07T02:35:32.938Z,101156.94
2022-11-07T02:35:48.607Z,101160.69
2022-11-07T02:36:01.852Z,101167.75
2022-11-07T02:36:17.602Z,101166.91
2022-11-07T02:36:30.488Z,101169.44
2022-11-07T02:36:43.087Z,101169.44
2022-11-07T02:36:56.160Z,101172.19
2022-11-07T02:37:20.143Z,101172.09
2022-11-07T02:37:38.859Z,101173.06
2022-11-07T02:37:51.680Z,101175.72
2022-11-07T02:38:06.912Z,101175.63
2022-11-07T02:38:21.743Z,101173.91
2022-11-07T02:38:37.764Z,101176.56
2022-11-07T02:38:57.497Z,101176.47
2022-11-07T02:39:10.410Z,101180.06
2022-11-07T02:39:24.735Z,101180.06
2022-11-07T02:39:37.658Z,101180.06
2022-11-07T02:39:50.933Z,101180.94
2022-11-07T02:40:08.891Z,101179.13
2022-11-07T02:40:22.166Z,101174.75
2022-11-07T02:40:35.754Z,101172.97
2022-11-07T02:40:51.590Z,101175.63
2022-11-07T02:41:08.170Z,101171.19
2022-11-07T02:41:23.361Z,101172.88